map of EGOW home
EGOW - Airport
Location
City:  Woodvale, Lancashire, England, United Kingdom
ICAO:EGOW

Details
Type:Airport (Aerodrome, Airfield)
Use:Military
Latitude:5334'54"N (53.581575)
Longitude:303'20"W (-3.055521)
Datum:WGS 1984
Elevation:37 ft (11 m)
Variation:1.65W (WMM2015 magnetic declination)
0.16 annual change
Runways:2
Longest:5405 × 150 ft (1647 × 45.5 m), paved

Time
Time Zone:UTC+0 (DST+1)
Local Time:

Weather
METAR:EGOW 221550Z 29011KT 9999 SCT025 12/07 Q1038 BLU

Related Locations
Nearby:
Farthest:NZBA: 11833 mi / 19043 km
Balclutha, OTA, NZ

Find:

   beyond  
but within

Other Information
Maps:
NOTAMs:
Links:
Sources:

  
  • flag of United Kingdom
  • flag of England
  • flag of Lancashire
  

Sectional Chart

Flight Planning
at skyvector.com

Satellite Image

Google Maps Satellite view

 

Copyright © 2004-2018 Karl L. Swartz. All rights reserved.
The Great Circle Mapper name and logo are trademarks of the Great Circle Mapper.
All other trademarks mentioned herein belong to their respective owners.
Please see credits for attibutions and further copyright information.

  Follow gcmap on Facebook Follow gcmap on Twitter Follow gcmap on Google+ GCmap on LinkedIn

hCard Microformat

Geo Microformat